AirNav   TITAN Aviation Fuels
 
 1448 users online  

LA53 Tensas Flying Service Airport
St. Joseph, Louisiana, USA

GOING TO ST. JOSEPH?


FAA INFORMATION EFFECTIVE 30 DECEMBER 2021

Location

FAA Identifier: LA53
Lat/Long: 31-58-39.0000N 091-15-50.0000W
31-58.650000N 091-15.833333W
31.9775000,-91.2638889
(estimated)
Elevation: 96 ft. / 29 m (estimated)
Variation: 01E (2010)
From city: 5 miles NW of ST. JOSEPH, LA
Time zone: UTC -6 (UTC -5 during Daylight Saving Time)
Zip code: 71366

Airport Operations

Airport use: Private use. Permission required prior to landing
Activation date: 10/2009
Control tower: no
ARTCC: MEMPHIS CENTER
FSS: DE RIDDER FLIGHT SERVICE STATION
Attendance: FEB-OCT MON-SAT 0700-1700
Segmented circle: no

Nearby radio navigation aids

VOR radial/distance  VOR name  Freq  Var
HEZr002/21.6NATCHEZ VOR/DME110.0003E

 
NDB name  Hdg/Dist  Freq  Var  ID
NATCHEZ-ADAMS COUNTY005/17.338800EHAH .... .- ....
TALLULAH215/20.134402ETKH - -.- ....

Airport Services

Runway Information

Runway 2/20

Dimensions: 3000 x 80 ft. / 914 x 24 m
Surface: turf
RUNWAY 2  RUNWAY 20
Traffic pattern: leftright

Airport Ownership and Management from official FAA records

Ownership: Privately-owned
Owner: TENSAS FLYING SERVICES, LLC
5791 LA HIGHWAY 608
NEWELLTON, LA 71357
Phone 318-766-1974
Manager: CARL HILL
5791 LA HIGHWAY 608
NEWELLTON, LA 71357
Phone 318-766-1974

Airport Operational Statistics

Aircraft based on the field: 3
Single engine airplanes: 3
    

Additional Remarks

FOR CD CTC MEMPHIS ARTCC AT 901-368-8453/8449.

Instrument Procedures

There are no published instrument procedures at LA53.

Some nearby airports with instrument procedures:

KHEZ - Hardy-Anders Field/Natchez-Adams County Airport (22 nm S)
KVKS - Vicksburg Municipal Airport (23 nm NE)
KTVR - Vicksburg Tallulah Regional Airport (25 nm NE)
0R4 - Concordia Parish Airport (28 nm SW)
M79 - John H Hooks Jr Memorial Airport (40 nm NW)
 
Loc | Ops | Rwys | IFR | FBO | Links
Com | Nav | Svcs | Stats | Notes
Aerial photo
No photo
 
Sectional chart

 
Airport distance calculator
Flying to Tensas Flying Service Airport? Find the distance to fly.

From to LA53

Sunrise and sunset
Times for 19-Jan-2022
 Local
(UTC-6)
 Zulu
(UTC)
Morning civil twilight06:4012:40
Sunrise07:0613:06
Sunset17:2623:26
Evening civil twilight17:5223:52

Current date and time
Zulu (UTC)  19-Jan-2022 18:15:52
Local (UTC-6)  19-Jan-2022 12:15:52
 
METAR
KHEZ 
22nm S 
191756Z AUTO 19011G20KT 10SM SCT038 BKN060 23/13 A3003 RMK AO2 SLP167 T02280133 10228 20111 58011
KVKS 
23nm NE 
191755Z AUTO 18008KT 9SM SCT050 OVC065 21/13 A3001 RMK A01
KTVR 
25nm NE 
191753Z AUTO 18009KT 10SM SCT075 22/13 A3002 RMK AO2 SLP172 T02170128 10222 20128 58008
K0R4 
28nm SW 
191755Z AUTO 17016G20KT 10SM SCT037 OVC055 23/13 A3002 RMK AO2 T02250134 10229 20129
TAF
NOTAMs
Click for the latest NOTAMs
NOTAMs are issued by the DoD/FAA and will open in a separate window not controlled by AirNav.

 

 
 

Would you like to see your business listed on this page?

 If your business provides an interesting product or service to pilots, flight crews, aircraft, or users of the Tensas Flying Service Airport, you should consider listing it here.  To start the listing process, click on the button below
 
Add a business
 

Other Pages about Tensas Flying Service Airport

Update a link
 
Copyright © AirNav, LLC. All rights reserved. Privacy Policy  Contact